シンガポール/チャンギ の空港の天気 - METARとTAF

シンガポール・チャンギ国際空港 ( WSSS / SIN ) - シンガポール Changi
飛行場実況気象(Metar)
観測時間10/24 09:30 SGT (10/24 01:30 UTC)
風向・風速北北西 2m/s
視程10km以上
天気現象弱い雨
少しの雲 雲底高度 610m
全天の8割程度の雲 雲底高度 4880m
気温28℃
湿度79%
気圧1012hPa
METARWSSS 240130Z 34003KT 290V010 9999 -RA FEW020 BKN160 28/24 Q1012 NOSIG
過去の天気等 Google飛行場航空写真 Wunderground天気予報

過去48時間のMETAR

飛行場予報(TAF)
発表時間: 10/24 07:00 SGT (10/23 23:00 UTC)
予報対象時間: 24日8時 SGT ~ 25日14時 SGT
風向・風速南西 3m/s
視程10km以上
少しの雲 雲底高度 460m
全天の4割程度の雲 雲底高度 610m
TAF WSSS 232300Z 2400/2506 23005KT 9999 FEW015 SCT020